Аэропорт: Абакан. Абакан

ICAO: UNAA

METAR:
2018/09/23 11:00
UNAA 231100Z 00000MPS CAVOK 16/12 Q1014 R02/090065 NOSIG RMK QFE738
METAR:
2018/09/23 09:24
TAF UNAA 230800Z 2309/2409 17003G10MPS 9999 SCT025CB PROB40 
      TEMPO 2309/2315 3500 -TSRA 
     FM231500 14003MPS 3100 BR FEW005 SCT012CB 
      TEMPO 2317/2402 0300 -SHRA FG SCT002 BKN011CB